sensor_id;sensor_type;location;lat;lon;timestamp;P1;durP1;ratioP1;P2;durP2;ratioP2
78744;SDS011;68064;53.100;8.824;2023-04-03T00:00:51;2.80;;;0.10;;
78744;SDS011;68064;53.100;8.824;2023-04-03T00:01:53;0.95;;;0.00;;
78744;SDS011;68064;53.100;8.824;2023-04-03T00:02:59;1.73;;;0.05;;
78744;SDS011;68064;53.100;8.824;2023-04-03T00:04:00;3.58;;;0.17;;
78744;SDS011;68064;53.100;8.824;2023-04-03T00:05:02;2.72;;;0.20;;
78744;SDS011;68064;53.100;8.824;2023-04-03T00:06:05;2.10;;;0.35;;
78744;SDS011;68064;53.100;8.824;2023-04-03T00:08:09;2.42;;;0.00;;
78744;SDS011;68064;53.100;8.824;2023-04-03T00:09:10;3.00;;;0.10;;
78744;SDS011;68064;53.100;8.824;2023-04-03T00:10:15;2.95;;;0.22;;
78744;SDS011;68064;53.100;8.824;2023-04-03T00:11:16;2.47;;;0.00;;
78744;SDS011;68064;53.100;8.824;2023-04-03T00:12:18;1.33;;;0.10;;
78744;SDS011;68064;53.100;8.824;2023-04-03T00:13:19;2.60;;;0.03;;
78744;SDS011;68064;53.100;8.824;2023-04-03T00:14:20;4.55;;;0.20;;
78744;SDS011;68064;53.100;8.824;2023-04-03T00:15:24;5.32;;;0.20;;
78744;SDS011;68064;53.100;8.824;2023-04-03T00:17:28;4.03;;;0.20;;
78744;SDS011;68064;53.100;8.824;2023-04-03T00:18:30;3.42;;;0.10;;
78744;SDS011;68064;53.100;8.824;2023-04-03T00:19:34;2.13;;;0.10;;
78744;SDS011;68064;53.100;8.824;2023-04-03T00:20:35;1.83;;;0.30;;
78744;SDS011;68064;53.100;8.824;2023-04-03T00:22:39;2.53;;;0.08;;
78744;SDS011;68064;53.100;8.824;2023-04-03T00:23:44;2.40;;;0.10;;
78744;SDS011;68064;53.100;8.824;2023-04-03T00:24:47;2.35;;;0.10;;
78744;SDS011;68064;53.100;8.824;2023-04-03T00:25:48;2.58;;;0.10;;
78744;SDS011;68064;53.100;8.824;2023-04-03T00:26:50;2.05;;;0.15;;
78744;SDS011;68064;53.100;8.824;2023-04-03T00:27:53;1.83;;;0.10;;
78744;SDS011;68064;53.100;8.824;2023-04-03T00:28:55;1.38;;;0.00;;
78744;SDS011;68064;53.100;8.824;2023-04-03T00:29:59;3.33;;;0.10;;
78744;SDS011;68064;53.100;8.824;2023-04-03T00:31:03;2.05;;;0.00;;
78744;SDS011;68064;53.100;8.824;2023-04-03T00:32:04;2.63;;;0.10;;
78744;SDS011;68064;53.100;8.824;2023-04-03T00:33:10;3.70;;;0.20;;
78744;SDS011;68064;53.100;8.824;2023-04-03T00:34:12;2.05;;;0.00;;
78744;SDS011;68064;53.100;8.824;2023-04-03T00:35:21;2.33;;;0.10;;
78744;SDS011;68064;53.100;8.824;2023-04-03T00:36:23;7.43;;;0.20;;
78744;SDS011;68064;53.100;8.824;2023-04-03T00:37:26;2.20;;;0.10;;
78744;SDS011;68064;53.100;8.824;2023-04-03T00:38:29;2.10;;;0.10;;
78744;SDS011;68064;53.100;8.824;2023-04-03T00:39:31;2.28;;;0.10;;
78744;SDS011;68064;53.100;8.824;2023-04-03T00:40:33;4.03;;;0.20;;
78744;SDS011;68064;53.100;8.824;2023-04-03T00:41:36;3.55;;;0.10;;
78744;SDS011;68064;53.100;8.824;2023-04-03T00:42:37;2.08;;;0.10;;
78744;SDS011;68064;53.100;8.824;2023-04-03T00:43:43;2.75;;;0.20;;
78744;SDS011;68064;53.100;8.824;2023-04-03T00:46:27;1.83;;;0.00;;
78744;SDS011;68064;53.100;8.824;2023-04-03T00:47:28;1.58;;;0.00;;
78744;SDS011;68064;53.100;8.824;2023-04-03T00:48:32;2.15;;;0.20;;
78744;SDS011;68064;53.100;8.824;2023-04-03T00:49:36;2.00;;;0.10;;
78744;SDS011;68064;53.100;8.824;2023-04-03T00:50:39;1.67;;;0.10;;
78744;SDS011;68064;53.100;8.824;2023-04-03T00:51:42;4.03;;;0.15;;
78744;SDS011;68064;53.100;8.824;2023-04-03T00:52:43;3.75;;;0.10;;
78744;SDS011;68064;53.100;8.824;2023-04-03T00:53:46;2.83;;;0.10;;
78744;SDS011;68064;53.100;8.824;2023-04-03T00:54:50;1.45;;;0.10;;
78744;SDS011;68064;53.100;8.824;2023-04-03T00:55:54;2.70;;;0.10;;
78744;SDS011;68064;53.100;8.824;2023-04-03T00:56:59;1.85;;;0.10;;
78744;SDS011;68064;53.100;8.824;2023-04-03T00:58:00;1.98;;;0.10;;
78744;SDS011;68064;53.100;8.824;2023-04-03T00:59:04;1.35;;;0.08;;
78744;SDS011;68064;53.100;8.824;2023-04-03T01:00:09;3.63;;;0.10;;
78744;SDS011;68064;53.100;8.824;2023-04-03T01:01:14;2.53;;;0.05;;
78744;SDS011;68064;53.100;8.824;2023-04-03T01:02:19;5.10;;;0.20;;
78744;SDS011;68064;53.100;8.824;2023-04-03T01:03:20;1.52;;;0.03;;
78744;SDS011;68064;53.100;8.824;2023-04-03T01:04:27;3.88;;;0.10;;
78744;SDS011;68064;53.100;8.824;2023-04-03T01:05:29;4.15;;;0.63;;
78744;SDS011;68064;53.100;8.824;2023-04-03T01:06:31;2.13;;;0.10;;
78744;SDS011;68064;53.100;8.824;2023-04-03T01:07:40;5.63;;;0.60;;
78744;SDS011;68064;53.100;8.824;2023-04-03T01:08:41;1.70;;;0.03;;
78744;SDS011;68064;53.100;8.824;2023-04-03T01:09:43;2.15;;;0.08;;
78744;SDS011;68064;53.100;8.824;2023-04-03T01:10:49;2.22;;;0.10;;
78744;SDS011;68064;53.100;8.824;2023-04-03T01:11:51;2.58;;;0.13;;
78744;SDS011;68064;53.100;8.824;2023-04-03T01:12:52;2.47;;;0.13;;
78744;SDS011;68064;53.100;8.824;2023-04-03T01:13:53;2.60;;;0.20;;
78744;SDS011;68064;53.100;8.824;2023-04-03T01:16:00;2.25;;;0.08;;
78744;SDS011;68064;53.100;8.824;2023-04-03T01:17:01;2.40;;;0.10;;
78744;SDS011;68064;53.100;8.824;2023-04-03T01:18:03;2.25;;;0.10;;
78744;SDS011;68064;53.100;8.824;2023-04-03T01:19:04;2.45;;;0.10;;
78744;SDS011;68064;53.100;8.824;2023-04-03T01:20:29;2.08;;;0.10;;
78744;SDS011;68064;53.100;8.824;2023-04-03T01:21:59;1.58;;;0.10;;
78744;SDS011;68064;53.100;8.824;2023-04-03T01:23:23;3.25;;;0.20;;
78744;SDS011;68064;53.100;8.824;2023-04-03T01:24:31;3.13;;;0.13;;
78744;SDS011;68064;53.100;8.824;2023-04-03T01:25:33;3.35;;;0.10;;
78744;SDS011;68064;53.100;8.824;2023-04-03T01:26:36;2.38;;;0.10;;
78744;SDS011;68064;53.100;8.824;2023-04-03T01:28:38;1.50;;;0.10;;
78744;SDS011;68064;53.100;8.824;2023-04-03T01:29:39;2.60;;;0.08;;
78744;SDS011;68064;53.100;8.824;2023-04-03T01:30:43;2.08;;;0.10;;
78744;SDS011;68064;53.100;8.824;2023-04-03T01:31:52;1.13;;;0.10;;
78744;SDS011;68064;53.100;8.824;2023-04-03T01:32:55;2.20;;;0.10;;
78744;SDS011;68064;53.100;8.824;2023-04-03T01:33:59;2.85;;;0.13;;
78744;SDS011;68064;53.100;8.824;2023-04-03T01:35:02;4.07;;;0.35;;
78744;SDS011;68064;53.100;8.824;2023-04-03T01:36:04;4.65;;;0.10;;
78744;SDS011;68064;53.100;8.824;2023-04-03T01:37:06;3.38;;;0.20;;
78744;SDS011;68064;53.100;8.824;2023-04-03T01:38:09;2.95;;;0.00;;
78744;SDS011;68064;53.100;8.824;2023-04-03T01:39:11;1.35;;;0.00;;
78744;SDS011;68064;53.100;8.824;2023-04-03T01:40:15;3.70;;;0.10;;
78744;SDS011;68064;53.100;8.824;2023-04-03T01:41:16;2.53;;;0.10;;
78744;SDS011;68064;53.100;8.824;2023-04-03T01:42:18;4.10;;;0.20;;
78744;SDS011;68064;53.100;8.824;2023-04-03T01:43:19;6.03;;;0.10;;
78744;SDS011;68064;53.100;8.824;2023-04-03T01:45:21;5.63;;;0.20;;
78744;SDS011;68064;53.100;8.824;2023-04-03T01:47:24;1.83;;;0.10;;
78744;SDS011;68064;53.100;8.824;2023-04-03T01:48:26;3.08;;;0.10;;
78744;SDS011;68064;53.100;8.824;2023-04-03T01:49:27;4.38;;;0.20;;
78744;SDS011;68064;53.100;8.824;2023-04-03T01:50:28;1.98;;;0.10;;
78744;SDS011;68064;53.100;8.824;2023-04-03T01:51:32;2.65;;;0.20;;
78744;SDS011;68064;53.100;8.824;2023-04-03T01:52:33;4.03;;;0.22;;
78744;SDS011;68064;53.100;8.824;2023-04-03T01:53:37;2.03;;;0.10;;
78744;SDS011;68064;53.100;8.824;2023-04-03T01:54:38;2.63;;;0.20;;
78744;SDS011;68064;53.100;8.824;2023-04-03T01:55:41;1.98;;;0.10;;
78744;SDS011;68064;53.100;8.824;2023-04-03T01:56:43;2.35;;;0.10;;
78744;SDS011;68064;53.100;8.824;2023-04-03T01:57:44;2.83;;;0.10;;
78744;SDS011;68064;53.100;8.824;2023-04-03T01:58:46;3.28;;;0.10;;
78744;SDS011;68064;53.100;8.824;2023-04-03T02:00:48;1.83;;;0.08;;
78744;SDS011;68064;53.100;8.824;2023-04-03T02:01:49;3.45;;;0.22;;
78744;SDS011;68064;53.100;8.824;2023-04-03T02:02:53;2.25;;;0.20;;
78744;SDS011;68064;53.100;8.824;2023-04-03T02:03:56;1.92;;;0.10;;
78744;SDS011;68064;53.100;8.824;2023-04-03T02:04:57;2.15;;;0.10;;
78744;SDS011;68064;53.100;8.824;2023-04-03T02:07:02;2.92;;;0.10;;
78744;SDS011;68064;53.100;8.824;2023-04-03T02:08:07;2.03;;;0.05;;
78744;SDS011;68064;53.100;8.824;2023-04-03T02:10:09;1.23;;;0.10;;
78744;SDS011;68064;53.100;8.824;2023-04-03T02:12:11;5.43;;;0.10;;
78744;SDS011;68064;53.100;8.824;2023-04-03T02:13:15;3.58;;;0.10;;
78744;SDS011;68064;53.100;8.824;2023-04-03T02:14:17;2.55;;;0.10;;
78744;SDS011;68064;53.100;8.824;2023-04-03T02:15:18;4.20;;;0.20;;
78744;SDS011;68064;53.100;8.824;2023-04-03T02:16:19;2.50;;;0.30;;
78744;SDS011;68064;53.100;8.824;2023-04-03T02:17:20;6.30;;;0.20;;
78744;SDS011;68064;53.100;8.824;2023-04-03T02:18:23;3.20;;;0.20;;
78744;SDS011;68064;53.100;8.824;2023-04-03T02:19:25;3.20;;;0.15;;
78744;SDS011;68064;53.100;8.824;2023-04-03T02:21:27;1.33;;;0.10;;
78744;SDS011;68064;53.100;8.824;2023-04-03T02:22:28;4.00;;;0.10;;
78744;SDS011;68064;53.100;8.824;2023-04-03T02:23:30;2.75;;;0.10;;
78744;SDS011;68064;53.100;8.824;2023-04-03T02:24:34;2.08;;;0.10;;
78744;SDS011;68064;53.100;8.824;2023-04-03T02:25:36;3.92;;;0.20;;
78744;SDS011;68064;53.100;8.824;2023-04-03T02:26:37;1.90;;;0.10;;
78744;SDS011;68064;53.100;8.824;2023-04-03T02:27:38;2.58;;;0.15;;
78744;SDS011;68064;53.100;8.824;2023-04-03T02:28:39;3.08;;;0.17;;
78744;SDS011;68064;53.100;8.824;2023-04-03T02:29:43;2.25;;;0.10;;
78744;SDS011;68064;53.100;8.824;2023-04-03T02:30:45;1.77;;;0.10;;
78744;SDS011;68064;53.100;8.824;2023-04-03T02:31:48;2.88;;;0.10;;
78744;SDS011;68064;53.100;8.824;2023-04-03T02:32:50;1.90;;;0.15;;
78744;SDS011;68064;53.100;8.824;2023-04-03T02:34:53;4.50;;;0.20;;
78744;SDS011;68064;53.100;8.824;2023-04-03T02:35:55;2.75;;;0.20;;
78744;SDS011;68064;53.100;8.824;2023-04-03T02:36:58;1.30;;;0.10;;
78744;SDS011;68064;53.100;8.824;2023-04-03T02:38:01;1.83;;;0.10;;
78744;SDS011;68064;53.100;8.824;2023-04-03T02:39:05;3.22;;;0.00;;
78744;SDS011;68064;53.100;8.824;2023-04-03T02:40:06;3.05;;;0.13;;
78744;SDS011;68064;53.100;8.824;2023-04-03T02:41:11;2.13;;;0.10;;
78744;SDS011;68064;53.100;8.824;2023-04-03T02:42:13;4.00;;;0.10;;
78744;SDS011;68064;53.100;8.824;2023-04-03T02:43:14;2.08;;;0.10;;
78744;SDS011;68064;53.100;8.824;2023-04-03T02:45:16;1.45;;;0.38;;
78744;SDS011;68064;53.100;8.824;2023-04-03T02:47:18;3.60;;;0.22;;
78744;SDS011;68064;53.100;8.824;2023-04-03T02:48:22;0.85;;;0.00;;
78744;SDS011;68064;53.100;8.824;2023-04-03T02:49:25;2.50;;;0.10;;
78744;SDS011;68064;53.100;8.824;2023-04-03T02:50:26;3.13;;;0.30;;
78744;SDS011;68064;53.100;8.824;2023-04-03T02:51:29;2.47;;;0.10;;
78744;SDS011;68064;53.100;8.824;2023-04-03T02:52:30;1.33;;;0.00;;
78744;SDS011;68064;53.100;8.824;2023-04-03T02:53:37;1.50;;;0.10;;
78744;SDS011;68064;53.100;8.824;2023-04-03T02:54:38;4.63;;;0.20;;
78744;SDS011;68064;53.100;8.824;2023-04-03T02:55:39;3.15;;;0.10;;
78744;SDS011;68064;53.100;8.824;2023-04-03T02:56:42;1.23;;;0.05;;
78744;SDS011;68064;53.100;8.824;2023-04-03T02:57:43;5.22;;;0.10;;
78744;SDS011;68064;53.100;8.824;2023-04-03T02:58:45;3.35;;;0.25;;
78744;SDS011;68064;53.100;8.824;2023-04-03T02:59:46;2.33;;;0.17;;
78744;SDS011;68064;53.100;8.824;2023-04-03T03:00:47;1.38;;;0.10;;
78744;SDS011;68064;53.100;8.824;2023-04-03T03:01:49;1.63;;;0.00;;
78744;SDS011;68064;53.100;8.824;2023-04-03T03:02:50;2.85;;;0.10;;
78744;SDS011;68064;53.100;8.824;2023-04-03T03:03:53;2.95;;;0.20;;
78744;SDS011;68064;53.100;8.824;2023-04-03T03:04:55;2.45;;;0.15;;
78744;SDS011;68064;53.100;8.824;2023-04-03T03:06:00;2.22;;;0.20;;
78744;SDS011;68064;53.100;8.824;2023-04-03T03:07:03;2.08;;;0.10;;
78744;SDS011;68064;53.100;8.824;2023-04-03T03:08:04;1.50;;;0.10;;
78744;SDS011;68064;53.100;8.824;2023-04-03T03:09:05;2.00;;;0.10;;
78744;SDS011;68064;53.100;8.824;2023-04-03T03:10:07;1.88;;;0.10;;
78744;SDS011;68064;53.100;8.824;2023-04-03T03:11:11;3.35;;;0.05;;
78744;SDS011;68064;53.100;8.824;2023-04-03T03:12:12;2.10;;;0.00;;
78744;SDS011;68064;53.100;8.824;2023-04-03T03:13:13;3.33;;;0.10;;
78744;SDS011;68064;53.100;8.824;2023-04-03T03:14:14;2.83;;;0.00;;
78744;SDS011;68064;53.100;8.824;2023-04-03T03:15:16;1.65;;;0.00;;
78744;SDS011;68064;53.100;8.824;2023-04-03T03:17:18;2.50;;;0.10;;
78744;SDS011;68064;53.100;8.824;2023-04-03T03:18:20;3.92;;;0.20;;
78744;SDS011;68064;53.100;8.824;2023-04-03T03:19:22;4.05;;;0.20;;
78744;SDS011;68064;53.100;8.824;2023-04-03T03:20:24;2.58;;;0.10;;
78744;SDS011;68064;53.100;8.824;2023-04-03T03:21:26;1.70;;;0.10;;
78744;SDS011;68064;53.100;8.824;2023-04-03T03:22:27;1.27;;;0.10;;
78744;SDS011;68064;53.100;8.824;2023-04-03T03:23:30;4.15;;;0.10;;
78744;SDS011;68064;53.100;8.824;2023-04-03T03:24:32;4.60;;;0.40;;
78744;SDS011;68064;53.100;8.824;2023-04-03T03:25:33;2.90;;;0.20;;
78744;SDS011;68064;53.100;8.824;2023-04-03T03:26:38;2.15;;;0.10;;
78744;SDS011;68064;53.100;8.824;2023-04-03T03:27:39;1.88;;;0.08;;
78744;SDS011;68064;53.100;8.824;2023-04-03T03:28:41;4.72;;;0.35;;
78744;SDS011;68064;53.100;8.824;2023-04-03T03:29:42;1.95;;;0.00;;
78744;SDS011;68064;53.100;8.824;2023-04-03T03:30:43;4.03;;;0.40;;
78744;SDS011;68064;53.100;8.824;2023-04-03T03:32:45;3.05;;;0.10;;
78744;SDS011;68064;53.100;8.824;2023-04-03T03:33:46;1.88;;;0.10;;
78744;SDS011;68064;53.100;8.824;2023-04-03T03:35:49;1.30;;;0.10;;
78744;SDS011;68064;53.100;8.824;2023-04-03T03:36:51;1.45;;;0.00;;
78744;SDS011;68064;53.100;8.824;2023-04-03T03:37:52;3.20;;;0.40;;
78744;SDS011;68064;53.100;8.824;2023-04-03T03:38:54;2.08;;;0.20;;
78744;SDS011;68064;53.100;8.824;2023-04-03T03:39:55;1.73;;;0.03;;
78744;SDS011;68064;53.100;8.824;2023-04-03T03:40:56;2.50;;;0.22;;
78744;SDS011;68064;53.100;8.824;2023-04-03T03:41:57;5.22;;;0.10;;
78744;SDS011;68064;53.100;8.824;2023-04-03T03:42:58;2.30;;;0.10;;
78744;SDS011;68064;53.100;8.824;2023-04-03T03:44:00;1.17;;;0.10;;
78744;SDS011;68064;53.100;8.824;2023-04-03T03:45:01;2.72;;;0.20;;
78744;SDS011;68064;53.100;8.824;2023-04-03T03:46:02;2.13;;;0.10;;
78744;SDS011;68064;53.100;8.824;2023-04-03T03:47:06;3.85;;;0.50;;
78744;SDS011;68064;53.100;8.824;2023-04-03T03:48:08;2.75;;;0.13;;
78744;SDS011;68064;53.100;8.824;2023-04-03T03:50:10;2.42;;;0.20;;
78744;SDS011;68064;53.100;8.824;2023-04-03T03:51:15;2.42;;;0.10;;
78744;SDS011;68064;53.100;8.824;2023-04-03T03:52:17;1.85;;;0.10;;
78744;SDS011;68064;53.100;8.824;2023-04-03T03:53:19;3.88;;;0.20;;
78744;SDS011;68064;53.100;8.824;2023-04-03T03:54:22;5.60;;;0.15;;
78744;SDS011;68064;53.100;8.824;2023-04-03T03:55:24;1.73;;;0.10;;
78744;SDS011;68064;53.100;8.824;2023-04-03T03:56:25;4.68;;;0.20;;
78744;SDS011;68064;53.100;8.824;2023-04-03T03:57:26;2.60;;;0.20;;
78744;SDS011;68064;53.100;8.824;2023-04-03T03:59:28;1.73;;;0.10;;
78744;SDS011;68064;53.100;8.824;2023-04-03T04:00:29;4.03;;;0.28;;
78744;SDS011;68064;53.100;8.824;2023-04-03T04:01:31;2.58;;;0.00;;
78744;SDS011;68064;53.100;8.824;2023-04-03T04:02:32;2.45;;;0.08;;
78744;SDS011;68064;53.100;8.824;2023-04-03T04:03:36;3.85;;;0.10;;
78744;SDS011;68064;53.100;8.824;2023-04-03T04:04:38;3.10;;;0.20;;
78744;SDS011;68064;53.100;8.824;2023-04-03T04:05:41;5.32;;;0.25;;
78744;SDS011;68064;53.100;8.824;2023-04-03T04:06:44;3.25;;;0.10;;
78744;SDS011;68064;53.100;8.824;2023-04-03T04:07:47;2.13;;;0.10;;
78744;SDS011;68064;53.100;8.824;2023-04-03T04:09:50;4.05;;;0.08;;
78744;SDS011;68064;53.100;8.824;2023-04-03T04:10:51;2.13;;;0.40;;
78744;SDS011;68064;53.100;8.824;2023-04-03T04:11:52;2.08;;;0.10;;
78744;SDS011;68064;53.100;8.824;2023-04-03T04:12:53;1.48;;;0.10;;
78744;SDS011;68064;53.100;8.824;2023-04-03T04:13:55;0.80;;;0.10;;
78744;SDS011;68064;53.100;8.824;2023-04-03T04:14:56;4.63;;;0.30;;
78744;SDS011;68064;53.100;8.824;2023-04-03T04:15:57;2.78;;;0.20;;
78744;SDS011;68064;53.100;8.824;2023-04-03T04:17:59;0.70;;;0.10;;
78744;SDS011;68064;53.100;8.824;2023-04-03T04:19:00;2.85;;;0.20;;
78744;SDS011;68064;53.100;8.824;2023-04-03T04:20:01;2.70;;;0.30;;
78744;SDS011;68064;53.100;8.824;2023-04-03T04:21:03;4.13;;;0.20;;
78744;SDS011;68064;53.100;8.824;2023-04-03T04:22:05;2.63;;;0.10;;
78744;SDS011;68064;53.100;8.824;2023-04-03T04:23:06;3.72;;;0.10;;
78744;SDS011;68064;53.100;8.824;2023-04-03T04:24:08;1.92;;;0.10;;
78744;SDS011;68064;53.100;8.824;2023-04-03T04:25:09;4.55;;;0.20;;
78744;SDS011;68064;53.100;8.824;2023-04-03T04:26:10;4.13;;;0.13;;
78744;SDS011;68064;53.100;8.824;2023-04-03T04:27:12;1.58;;;0.08;;
78744;SDS011;68064;53.100;8.824;2023-04-03T04:28:13;2.88;;;0.10;;
78744;SDS011;68064;53.100;8.824;2023-04-03T04:30:15;2.05;;;0.10;;
78744;SDS011;68064;53.100;8.824;2023-04-03T04:31:16;3.45;;;0.10;;
78744;SDS011;68064;53.100;8.824;2023-04-03T04:32:17;3.88;;;0.10;;
78744;SDS011;68064;53.100;8.824;2023-04-03T04:33:18;2.47;;;0.10;;
78744;SDS011;68064;53.100;8.824;2023-04-03T04:34:19;3.53;;;0.30;;
78744;SDS011;68064;53.100;8.824;2023-04-03T04:35:21;2.70;;;0.10;;
78744;SDS011;68064;53.100;8.824;2023-04-03T04:36:23;2.65;;;0.20;;
78744;SDS011;68064;53.100;8.824;2023-04-03T04:37:25;1.95;;;0.20;;
78744;SDS011;68064;53.100;8.824;2023-04-03T04:38:26;2.20;;;0.10;;
78744;SDS011;68064;53.100;8.824;2023-04-03T04:39:27;2.25;;;0.20;;
78744;SDS011;68064;53.100;8.824;2023-04-03T04:40:29;3.85;;;0.10;;
78744;SDS011;68064;53.100;8.824;2023-04-03T04:41:30;4.38;;;0.28;;
78744;SDS011;68064;53.100;8.824;2023-04-03T04:42:31;3.03;;;0.10;;
78744;SDS011;68064;53.100;8.824;2023-04-03T04:43:32;3.50;;;0.13;;
78744;SDS011;68064;53.100;8.824;2023-04-03T04:45:35;1.55;;;0.00;;
78744;SDS011;68064;53.100;8.824;2023-04-03T04:46:36;3.85;;;0.15;;
78744;SDS011;68064;53.100;8.824;2023-04-03T04:47:37;4.55;;;0.20;;
78744;SDS011;68064;53.100;8.824;2023-04-03T04:48:38;1.98;;;0.22;;
78744;SDS011;68064;53.100;8.824;2023-04-03T04:49:39;1.80;;;0.20;;
78744;SDS011;68064;53.100;8.824;2023-04-03T04:50:41;2.67;;;0.22;;
78744;SDS011;68064;53.100;8.824;2023-04-03T04:51:42;2.22;;;0.15;;
78744;SDS011;68064;53.100;8.824;2023-04-03T04:52:46;1.98;;;0.10;;
78744;SDS011;68064;53.100;8.824;2023-04-03T04:53:48;3.22;;;0.40;;
78744;SDS011;68064;53.100;8.824;2023-04-03T04:54:49;4.93;;;0.68;;
78744;SDS011;68064;53.100;8.824;2023-04-03T04:55:50;3.22;;;0.20;;
78744;SDS011;68064;53.100;8.824;2023-04-03T04:56:51;3.75;;;0.20;;
78744;SDS011;68064;53.100;8.824;2023-04-03T04:57:53;1.67;;;0.20;;
78744;SDS011;68064;53.100;8.824;2023-04-03T04:58:54;2.75;;;0.10;;
78744;SDS011;68064;53.100;8.824;2023-04-03T04:59:55;3.13;;;0.20;;
78744;SDS011;68064;53.100;8.824;2023-04-03T05:00:59;2.75;;;0.35;;
78744;SDS011;68064;53.100;8.824;2023-04-03T05:02:01;4.35;;;0.32;;
78744;SDS011;68064;53.100;8.824;2023-04-03T05:03:02;3.63;;;0.30;;
78744;SDS011;68064;53.100;8.824;2023-04-03T05:04:03;2.15;;;0.20;;
78744;SDS011;68064;53.100;8.824;2023-04-03T05:05:04;1.42;;;0.05;;
78744;SDS011;68064;53.100;8.824;2023-04-03T05:06:06;3.80;;;0.10;;
78744;SDS011;68064;53.100;8.824;2023-04-03T05:08:09;1.85;;;0.10;;
78744;SDS011;68064;53.100;8.824;2023-04-03T05:09:10;6.43;;;0.10;;
78744;SDS011;68064;53.100;8.824;2023-04-03T05:10:11;4.82;;;0.28;;
78744;SDS011;68064;53.100;8.824;2023-04-03T05:11:12;2.90;;;0.10;;
78744;SDS011;68064;53.100;8.824;2023-04-03T05:13:14;2.33;;;0.10;;
78744;SDS011;68064;53.100;8.824;2023-04-03T05:14:16;2.92;;;0.20;;
78744;SDS011;68064;53.100;8.824;2023-04-03T05:16:18;1.95;;;0.10;;
78744;SDS011;68064;53.100;8.824;2023-04-03T05:17:19;2.40;;;0.13;;
78744;SDS011;68064;53.100;8.824;2023-04-03T05:18:20;3.10;;;0.10;;
78744;SDS011;68064;53.100;8.824;2023-04-03T05:19:21;3.22;;;0.17;;
78744;SDS011;68064;53.100;8.824;2023-04-03T05:20:22;2.78;;;0.28;;
78744;SDS011;68064;53.100;8.824;2023-04-03T05:21:23;5.78;;;0.20;;
78744;SDS011;68064;53.100;8.824;2023-04-03T05:22:24;3.90;;;0.17;;
78744;SDS011;68064;53.100;8.824;2023-04-03T05:23:27;2.20;;;0.10;;
78744;SDS011;68064;53.100;8.824;2023-04-03T05:24:28;4.00;;;0.30;;
78744;SDS011;68064;53.100;8.824;2023-04-03T05:25:29;4.15;;;0.52;;
78744;SDS011;68064;53.100;8.824;2023-04-03T05:26:31;3.33;;;0.20;;
78744;SDS011;68064;53.100;8.824;2023-04-03T05:27:32;3.42;;;0.17;;
78744;SDS011;68064;53.100;8.824;2023-04-03T05:28:33;2.90;;;0.20;;
78744;SDS011;68064;53.100;8.824;2023-04-03T05:29:34;6.55;;;0.20;;
78744;SDS011;68064;53.100;8.824;2023-04-03T05:30:35;2.58;;;0.10;;
78744;SDS011;68064;53.100;8.824;2023-04-03T05:31:36;2.72;;;0.20;;
78744;SDS011;68064;53.100;8.824;2023-04-03T05:32:37;8.05;;;0.50;;
78744;SDS011;68064;53.100;8.824;2023-04-03T05:33:38;3.40;;;0.30;;
78744;SDS011;68064;53.100;8.824;2023-04-03T05:34:40;2.70;;;0.10;;
78744;SDS011;68064;53.100;8.824;2023-04-03T05:35:41;3.40;;;0.20;;
78744;SDS011;68064;53.100;8.824;2023-04-03T05:36:42;4.25;;;0.28;;
78744;SDS011;68064;53.100;8.824;2023-04-03T05:37:43;5.70;;;0.20;;
78744;SDS011;68064;53.100;8.824;2023-04-03T05:38:45;6.68;;;0.20;;
78744;SDS011;68064;53.100;8.824;2023-04-03T05:39:47;4.90;;;0.32;;
78744;SDS011;68064;53.100;8.824;2023-04-03T05:40:48;2.75;;;0.15;;
78744;SDS011;68064;53.100;8.824;2023-04-03T05:41:49;8.38;;;0.30;;
78744;SDS011;68064;53.100;8.824;2023-04-03T05:42:50;3.75;;;0.28;;
78744;SDS011;68064;53.100;8.824;2023-04-03T05:43:51;3.28;;;0.30;;
78744;SDS011;68064;53.100;8.824;2023-04-03T05:44:52;3.85;;;0.50;;
78744;SDS011;68064;53.100;8.824;2023-04-03T05:45:53;3.42;;;0.20;;
78744;SDS011;68064;53.100;8.824;2023-04-03T05:46:54;4.93;;;0.38;;
78744;SDS011;68064;53.100;8.824;2023-04-03T05:47:55;4.60;;;0.25;;
78744;SDS011;68064;53.100;8.824;2023-04-03T05:48:56;4.68;;;0.20;;
78744;SDS011;68064;53.100;8.824;2023-04-03T05:49:58;3.83;;;0.20;;
78744;SDS011;68064;53.100;8.824;2023-04-03T05:50:59;4.40;;;0.30;;
78744;SDS011;68064;53.100;8.824;2023-04-03T05:52:00;10.30;;;0.40;;
78744;SDS011;68064;53.100;8.824;2023-04-03T05:53:01;5.60;;;0.98;;
78744;SDS011;68064;53.100;8.824;2023-04-03T05:54:09;3.50;;;0.40;;
78744;SDS011;68064;53.100;8.824;2023-04-03T05:55:14;4.95;;;0.20;;
78744;SDS011;68064;53.100;8.824;2023-04-03T05:56:15;3.95;;;0.28;;
78744;SDS011;68064;53.100;8.824;2023-04-03T05:57:16;8.23;;;0.45;;
78744;SDS011;68064;53.100;8.824;2023-04-03T05:58:17;5.07;;;0.32;;
78744;SDS011;68064;53.100;8.824;2023-04-03T05:59:18;5.10;;;0.30;;
78744;SDS011;68064;53.100;8.824;2023-04-03T06:00:20;2.42;;;0.20;;
78744;SDS011;68064;53.100;8.824;2023-04-03T06:01:21;3.67;;;0.20;;
78744;SDS011;68064;53.100;8.824;2023-04-03T06:02:23;5.65;;;0.45;;
78744;SDS011;68064;53.100;8.824;2023-04-03T06:03:25;4.13;;;0.30;;
78744;SDS011;68064;53.100;8.824;2023-04-03T06:04:26;5.93;;;0.28;;
78744;SDS011;68064;53.100;8.824;2023-04-03T06:05:27;5.70;;;0.20;;
78744;SDS011;68064;53.100;8.824;2023-04-03T06:06:42;6.05;;;0.45;;
78744;SDS011;68064;53.100;8.824;2023-04-03T06:07:44;5.65;;;0.50;;
78744;SDS011;68064;53.100;8.824;2023-04-03T06:08:45;3.10;;;0.30;;
78744;SDS011;68064;53.100;8.824;2023-04-03T06:09:48;5.20;;;0.50;;
78744;SDS011;68064;53.100;8.824;2023-04-03T06:10:50;10.88;;;0.70;;
78744;SDS011;68064;53.100;8.824;2023-04-03T06:11:51;6.75;;;0.65;;
78744;SDS011;68064;53.100;8.824;2023-04-03T06:12:52;6.70;;;0.40;;
78744;SDS011;68064;53.100;8.824;2023-04-03T06:13:54;5.80;;;0.50;;
78744;SDS011;68064;53.100;8.824;2023-04-03T06:14:55;7.45;;;0.70;;
78744;SDS011;68064;53.100;8.824;2023-04-03T06:16:57;8.55;;;0.88;;
78744;SDS011;68064;53.100;8.824;2023-04-03T06:18:59;6.63;;;0.73;;
78744;SDS011;68064;53.100;8.824;2023-04-03T06:20:00;3.00;;;0.20;;
78744;SDS011;68064;53.100;8.824;2023-04-03T06:21:01;5.75;;;0.52;;
78744;SDS011;68064;53.100;8.824;2023-04-03T06:22:02;6.75;;;0.50;;
78744;SDS011;68064;53.100;8.824;2023-04-03T06:23:03;7.68;;;0.60;;
78744;SDS011;68064;53.100;8.824;2023-04-03T06:24:04;4.82;;;0.20;;
78744;SDS011;68064;53.100;8.824;2023-04-03T06:25:08;5.10;;;0.50;;
78744;SDS011;68064;53.100;8.824;2023-04-03T06:26:10;8.98;;;0.60;;
78744;SDS011;68064;53.100;8.824;2023-04-03T06:27:11;6.25;;;0.60;;
78744;SDS011;68064;53.100;8.824;2023-04-03T06:28:12;7.47;;;0.60;;
78744;SDS011;68064;53.100;8.824;2023-04-03T06:30:14;5.38;;;0.40;;
78744;SDS011;68064;53.100;8.824;2023-04-03T06:31:17;9.43;;;0.70;;
78744;SDS011;68064;53.100;8.824;2023-04-03T06:32:18;15.15;;;1.75;;
78744;SDS011;68064;53.100;8.824;2023-04-03T06:33:19;10.38;;;0.80;;
78744;SDS011;68064;53.100;8.824;2023-04-03T06:34:20;9.70;;;0.75;;
78744;SDS011;68064;53.100;8.824;2023-04-03T06:35:21;6.78;;;0.75;;
78744;SDS011;68064;53.100;8.824;2023-04-03T06:36:22;7.35;;;0.40;;
78744;SDS011;68064;53.100;8.824;2023-04-03T06:38:24;8.95;;;1.25;;
78744;SDS011;68064;53.100;8.824;2023-04-03T06:39:26;9.55;;;0.40;;
78744;SDS011;68064;53.100;8.824;2023-04-03T06:40:28;6.55;;;0.43;;
78744;SDS011;68064;53.100;8.824;2023-04-03T06:41:29;8.00;;;0.80;;
78744;SDS011;68064;53.100;8.824;2023-04-03T06:42:30;9.45;;;0.57;;
78744;SDS011;68064;53.100;8.824;2023-04-03T06:43:31;8.75;;;0.85;;
78744;SDS011;68064;53.100;8.824;2023-04-03T06:44:33;13.77;;;1.58;;
78744;SDS011;68064;53.100;8.824;2023-04-03T06:46:35;6.78;;;1.02;;
78744;SDS011;68064;53.100;8.824;2023-04-03T06:47:36;8.05;;;1.42;;
78744;SDS011;68064;53.100;8.824;2023-04-03T06:48:37;10.65;;;0.85;;
78744;SDS011;68064;53.100;8.824;2023-04-03T06:49:38;5.00;;;0.40;;